sensor_id;sensor_type;location;lat;lon;timestamp;P1;durP1;ratioP1;P2;durP2;ratioP2
36575;SDS011;45700;50.930;5.168;2023-08-01T00:00:29;0.35;;;0.32;;
36575;SDS011;45700;50.930;5.168;2023-08-01T00:04:30;0.60;;;0.57;;
36575;SDS011;45700;50.930;5.168;2023-08-01T00:08:31;0.60;;;0.40;;
36575;SDS011;45700;50.930;5.168;2023-08-01T00:12:32;1.98;;;0.70;;
36575;SDS011;45700;50.930;5.168;2023-08-01T00:16:33;0.70;;;0.70;;
36575;SDS011;45700;50.930;5.168;2023-08-01T00:20:34;0.95;;;0.40;;
36575;SDS011;45700;50.930;5.168;2023-08-01T00:24:35;0.77;;;0.50;;
36575;SDS011;45700;50.930;5.168;2023-08-01T00:28:36;1.23;;;0.55;;
36575;SDS011;45700;50.930;5.168;2023-08-01T00:32:37;1.33;;;0.60;;
36575;SDS011;45700;50.930;5.168;2023-08-01T00:36:38;1.02;;;0.77;;
36575;SDS011;45700;50.930;5.168;2023-08-01T00:40:39;2.95;;;0.70;;
36575;SDS011;45700;50.930;5.168;2023-08-01T00:44:40;0.93;;;0.57;;
36575;SDS011;45700;50.930;5.168;2023-08-01T00:48:41;0.50;;;0.50;;
36575;SDS011;45700;50.930;5.168;2023-08-01T00:52:42;0.82;;;0.40;;
36575;SDS011;45700;50.930;5.168;2023-08-01T00:56:43;1.35;;;0.70;;
36575;SDS011;45700;50.930;5.168;2023-08-01T01:00:45;2.05;;;0.57;;
36575;SDS011;45700;50.930;5.168;2023-08-01T01:04:46;1.35;;;0.90;;
36575;SDS011;45700;50.930;5.168;2023-08-01T01:08:48;1.05;;;0.80;;
36575;SDS011;45700;50.930;5.168;2023-08-01T01:12:49;2.17;;;1.10;;
36575;SDS011;45700;50.930;5.168;2023-08-01T01:16:50;2.10;;;1.33;;
36575;SDS011;45700;50.930;5.168;2023-08-01T01:20:51;2.80;;;1.23;;
36575;SDS011;45700;50.930;5.168;2023-08-01T01:24:52;2.35;;;1.42;;
36575;SDS011;45700;50.930;5.168;2023-08-01T01:28:54;5.78;;;1.63;;
36575;SDS011;45700;50.930;5.168;2023-08-01T01:32:55;4.10;;;1.00;;
36575;SDS011;45700;50.930;5.168;2023-08-01T01:36:56;2.70;;;1.45;;
36575;SDS011;45700;50.930;5.168;2023-08-01T01:40:57;4.43;;;1.38;;
36575;SDS011;45700;50.930;5.168;2023-08-01T01:44:58;4.47;;;1.40;;
36575;SDS011;45700;50.930;5.168;2023-08-01T01:48:59;4.20;;;1.52;;
36575;SDS011;45700;50.930;5.168;2023-08-01T01:53:00;8.60;;;1.35;;
36575;SDS011;45700;50.930;5.168;2023-08-01T01:57:01;2.45;;;1.25;;
36575;SDS011;45700;50.930;5.168;2023-08-01T02:01:02;4.20;;;1.95;;
36575;SDS011;45700;50.930;5.168;2023-08-01T02:05:03;4.20;;;1.95;;
36575;SDS011;45700;50.930;5.168;2023-08-01T02:09:04;2.10;;;1.33;;
36575;SDS011;45700;50.930;5.168;2023-08-01T02:13:06;3.35;;;1.58;;
36575;SDS011;45700;50.930;5.168;2023-08-01T02:17:08;5.93;;;2.25;;
36575;SDS011;45700;50.930;5.168;2023-08-01T02:21:09;3.83;;;1.58;;
36575;SDS011;45700;50.930;5.168;2023-08-01T02:25:10;5.13;;;2.30;;
36575;SDS011;45700;50.930;5.168;2023-08-01T02:29:11;4.43;;;1.85;;
36575;SDS011;45700;50.930;5.168;2023-08-01T02:33:12;4.07;;;2.05;;
36575;SDS011;45700;50.930;5.168;2023-08-01T02:37:13;3.58;;;2.05;;
36575;SDS011;45700;50.930;5.168;2023-08-01T02:41:14;4.63;;;2.10;;
36575;SDS011;45700;50.930;5.168;2023-08-01T02:45:15;3.33;;;1.77;;
36575;SDS011;45700;50.930;5.168;2023-08-01T02:49:16;4.82;;;2.03;;
36575;SDS011;45700;50.930;5.168;2023-08-01T02:53:17;6.18;;;2.22;;
36575;SDS011;45700;50.930;5.168;2023-08-01T02:57:18;3.63;;;2.33;;
36575;SDS011;45700;50.930;5.168;2023-08-01T03:01:19;5.18;;;2.40;;
36575;SDS011;45700;50.930;5.168;2023-08-01T03:05:20;6.13;;;3.35;;
36575;SDS011;45700;50.930;5.168;2023-08-01T03:09:21;6.18;;;2.92;;
36575;SDS011;45700;50.930;5.168;2023-08-01T03:13:22;10.43;;;2.55;;
36575;SDS011;45700;50.930;5.168;2023-08-01T03:17:23;7.30;;;2.65;;
36575;SDS011;45700;50.930;5.168;2023-08-01T03:21:24;3.92;;;1.98;;
36575;SDS011;45700;50.930;5.168;2023-08-01T03:25:26;4.05;;;2.40;;
36575;SDS011;45700;50.930;5.168;2023-08-01T03:29:27;10.27;;;2.92;;
36575;SDS011;45700;50.930;5.168;2023-08-01T03:33:28;8.20;;;2.28;;
36575;SDS011;45700;50.930;5.168;2023-08-01T03:37:29;5.22;;;1.95;;
36575;SDS011;45700;50.930;5.168;2023-08-01T03:41:31;4.47;;;2.10;;
36575;SDS011;45700;50.930;5.168;2023-08-01T03:45:32;9.70;;;2.63;;
36575;SDS011;45700;50.930;5.168;2023-08-01T03:49:33;5.32;;;2.75;;
36575;SDS011;45700;50.930;5.168;2023-08-01T03:53:35;7.15;;;2.50;;
36575;SDS011;45700;50.930;5.168;2023-08-01T03:57:36;4.03;;;2.30;;
36575;SDS011;45700;50.930;5.168;2023-08-01T04:01:38;4.68;;;2.42;;
36575;SDS011;45700;50.930;5.168;2023-08-01T04:05:39;6.38;;;2.75;;
36575;SDS011;45700;50.930;5.168;2023-08-01T04:09:40;3.85;;;2.50;;
36575;SDS011;45700;50.930;5.168;2023-08-01T04:13:41;5.95;;;2.70;;
36575;SDS011;45700;50.930;5.168;2023-08-01T04:17:42;6.47;;;3.10;;
36575;SDS011;45700;50.930;5.168;2023-08-01T04:21:43;7.95;;;3.03;;
36575;SDS011;45700;50.930;5.168;2023-08-01T04:25:44;5.53;;;2.45;;
36575;SDS011;45700;50.930;5.168;2023-08-01T04:29:46;6.78;;;2.67;;
36575;SDS011;45700;50.930;5.168;2023-08-01T04:33:47;6.20;;;2.33;;
36575;SDS011;45700;50.930;5.168;2023-08-01T04:37:48;10.00;;;2.63;;
36575;SDS011;45700;50.930;5.168;2023-08-01T04:41:49;6.85;;;3.15;;
36575;SDS011;45700;50.930;5.168;2023-08-01T04:45:50;11.02;;;3.88;;
36575;SDS011;45700;50.930;5.168;2023-08-01T04:49:51;9.82;;;3.22;;
36575;SDS011;45700;50.930;5.168;2023-08-01T04:53:51;9.77;;;3.40;;
36575;SDS011;45700;50.930;5.168;2023-08-01T04:57:53;7.68;;;2.65;;
36575;SDS011;45700;50.930;5.168;2023-08-01T05:01:54;11.45;;;3.75;;
36575;SDS011;45700;50.930;5.168;2023-08-01T05:05:55;8.00;;;2.60;;
36575;SDS011;45700;50.930;5.168;2023-08-01T05:09:56;6.68;;;3.28;;
36575;SDS011;45700;50.930;5.168;2023-08-01T05:13:57;7.20;;;2.85;;
36575;SDS011;45700;50.930;5.168;2023-08-01T05:17:57;6.07;;;3.00;;
36575;SDS011;45700;50.930;5.168;2023-08-01T05:21:58;9.77;;;3.10;;
36575;SDS011;45700;50.930;5.168;2023-08-01T05:25:59;6.10;;;3.10;;
36575;SDS011;45700;50.930;5.168;2023-08-01T05:30:00;11.90;;;3.30;;
36575;SDS011;45700;50.930;5.168;2023-08-01T05:34:01;10.55;;;3.50;;
36575;SDS011;45700;50.930;5.168;2023-08-01T05:38:02;8.80;;;3.78;;
36575;SDS011;45700;50.930;5.168;2023-08-01T05:42:03;7.07;;;3.13;;
36575;SDS011;45700;50.930;5.168;2023-08-01T05:46:08;8.55;;;3.50;;
36575;SDS011;45700;50.930;5.168;2023-08-01T05:50:09;5.35;;;3.30;;
36575;SDS011;45700;50.930;5.168;2023-08-01T05:54:10;12.10;;;4.03;;
36575;SDS011;45700;50.930;5.168;2023-08-01T05:58:11;8.68;;;3.10;;
36575;SDS011;45700;50.930;5.168;2023-08-01T06:02:12;8.35;;;4.15;;
36575;SDS011;45700;50.930;5.168;2023-08-01T06:06:13;7.43;;;3.05;;
36575;SDS011;45700;50.930;5.168;2023-08-01T06:10:14;10.90;;;3.72;;
36575;SDS011;45700;50.930;5.168;2023-08-01T06:14:15;9.57;;;4.13;;
36575;SDS011;45700;50.930;5.168;2023-08-01T06:18:16;10.38;;;3.38;;
36575;SDS011;45700;50.930;5.168;2023-08-01T06:22:17;6.22;;;3.28;;
36575;SDS011;45700;50.930;5.168;2023-08-01T06:26:18;8.57;;;2.88;;
36575;SDS011;45700;50.930;5.168;2023-08-01T06:30:19;12.80;;;3.65;;
36575;SDS011;45700;50.930;5.168;2023-08-01T06:34:20;11.00;;;3.67;;
36575;SDS011;45700;50.930;5.168;2023-08-01T06:38:21;13.75;;;3.17;;
36575;SDS011;45700;50.930;5.168;2023-08-01T06:42:22;7.93;;;3.20;;
36575;SDS011;45700;50.930;5.168;2023-08-01T06:46:23;16.88;;;3.35;;
36575;SDS011;45700;50.930;5.168;2023-08-01T06:50:24;10.15;;;3.10;;
36575;SDS011;45700;50.930;5.168;2023-08-01T06:54:25;8.88;;;3.40;;
36575;SDS011;45700;50.930;5.168;2023-08-01T06:58:26;14.23;;;3.25;;
36575;SDS011;45700;50.930;5.168;2023-08-01T07:02:27;7.50;;;3.08;;
36575;SDS011;45700;50.930;5.168;2023-08-01T07:06:28;7.10;;;3.42;;
36575;SDS011;45700;50.930;5.168;2023-08-01T07:10:29;8.27;;;3.45;;
36575;SDS011;45700;50.930;5.168;2023-08-01T07:14:30;8.95;;;3.70;;
36575;SDS011;45700;50.930;5.168;2023-08-01T07:18:31;10.77;;;3.88;;
36575;SDS011;45700;50.930;5.168;2023-08-01T07:22:32;11.43;;;3.42;;
36575;SDS011;45700;50.930;5.168;2023-08-01T07:26:33;9.38;;;3.42;;
36575;SDS011;45700;50.930;5.168;2023-08-01T07:30:34;7.72;;;3.15;;
36575;SDS011;45700;50.930;5.168;2023-08-01T07:34:35;8.30;;;3.20;;
36575;SDS011;45700;50.930;5.168;2023-08-01T07:38:36;12.05;;;3.70;;
36575;SDS011;45700;50.930;5.168;2023-08-01T07:42:37;10.32;;;3.38;;
36575;SDS011;45700;50.930;5.168;2023-08-01T07:46:38;8.60;;;3.53;;
36575;SDS011;45700;50.930;5.168;2023-08-01T07:50:39;8.60;;;3.40;;
36575;SDS011;45700;50.930;5.168;2023-08-01T07:54:41;6.20;;;2.97;;
36575;SDS011;45700;50.930;5.168;2023-08-01T07:58:42;10.77;;;2.92;;
36575;SDS011;45700;50.930;5.168;2023-08-01T08:02:44;8.90;;;3.58;;
36575;SDS011;45700;50.930;5.168;2023-08-01T08:06:45;11.10;;;3.10;;
36575;SDS011;45700;50.930;5.168;2023-08-01T08:10:46;7.45;;;2.47;;
36575;SDS011;45700;50.930;5.168;2023-08-01T08:14:47;8.75;;;2.83;;
36575;SDS011;45700;50.930;5.168;2023-08-01T08:18:48;8.98;;;2.88;;
36575;SDS011;45700;50.930;5.168;2023-08-01T08:22:49;5.80;;;2.83;;
36575;SDS011;45700;50.930;5.168;2023-08-01T08:26:50;4.68;;;2.97;;
36575;SDS011;45700;50.930;5.168;2023-08-01T08:30:51;9.43;;;3.22;;
36575;SDS011;45700;50.930;5.168;2023-08-01T08:34:52;6.05;;;2.67;;
36575;SDS011;45700;50.930;5.168;2023-08-01T08:38:53;5.47;;;2.60;;
36575;SDS011;45700;50.930;5.168;2023-08-01T08:42:54;4.75;;;2.17;;
36575;SDS011;45700;50.930;5.168;2023-08-01T08:46:58;7.00;;;2.33;;
36575;SDS011;45700;50.930;5.168;2023-08-01T08:51:01;5.70;;;2.63;;
36575;SDS011;45700;50.930;5.168;2023-08-01T08:55:03;6.32;;;2.00;;
36575;SDS011;45700;50.930;5.168;2023-08-01T08:59:05;5.88;;;2.33;;
36575;SDS011;45700;50.930;5.168;2023-08-01T09:03:06;4.85;;;2.40;;
36575;SDS011;45700;50.930;5.168;2023-08-01T09:07:08;7.40;;;2.75;;
36575;SDS011;45700;50.930;5.168;2023-08-01T09:11:11;5.65;;;2.83;;
36575;SDS011;45700;50.930;5.168;2023-08-01T09:15:12;8.25;;;2.55;;
36575;SDS011;45700;50.930;5.168;2023-08-01T09:19:17;6.68;;;2.72;;
36575;SDS011;45700;50.930;5.168;2023-08-01T09:23:19;4.50;;;2.20;;
36575;SDS011;45700;50.930;5.168;2023-08-01T09:27:20;4.07;;;1.90;;
36575;SDS011;45700;50.930;5.168;2023-08-01T09:31:26;8.50;;;2.45;;
36575;SDS011;45700;50.930;5.168;2023-08-01T09:35:28;7.15;;;2.33;;
36575;SDS011;45700;50.930;5.168;2023-08-01T09:39:38;4.78;;;2.40;;
36575;SDS011;45700;50.930;5.168;2023-08-01T09:43:39;8.55;;;2.58;;
36575;SDS011;45700;50.930;5.168;2023-08-01T09:47:44;8.48;;;1.55;;
36575;SDS011;45700;50.930;5.168;2023-08-01T09:51:48;3.53;;;1.40;;
36575;SDS011;45700;50.930;5.168;2023-08-01T09:55:49;3.60;;;1.20;;
36575;SDS011;45700;50.930;5.168;2023-08-01T09:59:52;4.15;;;1.15;;
36575;SDS011;45700;50.930;5.168;2023-08-01T10:03:53;5.53;;;1.70;;
36575;SDS011;45700;50.930;5.168;2023-08-01T10:07:54;5.75;;;1.27;;
36575;SDS011;45700;50.930;5.168;2023-08-01T10:11:57;4.90;;;1.60;;
36575;SDS011;45700;50.930;5.168;2023-08-01T10:15:58;3.88;;;1.30;;
36575;SDS011;45700;50.930;5.168;2023-08-01T10:20:00;8.82;;;1.35;;
36575;SDS011;45700;50.930;5.168;2023-08-01T10:24:03;5.30;;;1.10;;
36575;SDS011;45700;50.930;5.168;2023-08-01T10:28:06;4.38;;;1.27;;
36575;SDS011;45700;50.930;5.168;2023-08-01T10:32:07;2.83;;;1.25;;
36575;SDS011;45700;50.930;5.168;2023-08-01T10:40:15;4.55;;;1.75;;
36575;SDS011;45700;50.930;5.168;2023-08-01T10:44:16;3.80;;;1.20;;
36575;SDS011;45700;50.930;5.168;2023-08-01T10:48:17;4.10;;;1.30;;
36575;SDS011;45700;50.930;5.168;2023-08-01T10:52:25;2.90;;;1.25;;
36575;SDS011;45700;50.930;5.168;2023-08-01T10:56:29;4.90;;;1.20;;
36575;SDS011;45700;50.930;5.168;2023-08-01T11:00:31;4.93;;;1.42;;
36575;SDS011;45700;50.930;5.168;2023-08-01T11:04:32;5.25;;;1.48;;
36575;SDS011;45700;50.930;5.168;2023-08-01T11:08:34;4.05;;;1.73;;
36575;SDS011;45700;50.930;5.168;2023-08-01T11:12:36;4.07;;;2.15;;
36575;SDS011;45700;50.930;5.168;2023-08-01T11:16:37;4.07;;;1.52;;
36575;SDS011;45700;50.930;5.168;2023-08-01T11:20:38;3.70;;;1.60;;
36575;SDS011;45700;50.930;5.168;2023-08-01T11:24:41;5.13;;;1.75;;
36575;SDS011;45700;50.930;5.168;2023-08-01T11:28:50;3.22;;;1.80;;
36575;SDS011;45700;50.930;5.168;2023-08-01T11:32:51;5.53;;;1.52;;
36575;SDS011;45700;50.930;5.168;2023-08-01T11:36:52;5.65;;;2.40;;
36575;SDS011;45700;50.930;5.168;2023-08-01T11:40:53;4.63;;;2.05;;
36575;SDS011;45700;50.930;5.168;2023-08-01T11:44:54;5.82;;;1.90;;
36575;SDS011;45700;50.930;5.168;2023-08-01T11:49:08;4.28;;;2.55;;
36575;SDS011;45700;50.930;5.168;2023-08-01T11:53:21;4.30;;;1.90;;
36575;SDS011;45700;50.930;5.168;2023-08-01T11:57:23;3.00;;;1.58;;
36575;SDS011;45700;50.930;5.168;2023-08-01T12:01:24;5.07;;;1.58;;
36575;SDS011;45700;50.930;5.168;2023-08-01T12:05:25;3.08;;;1.50;;
36575;SDS011;45700;50.930;5.168;2023-08-01T12:09:26;5.55;;;1.77;;
36575;SDS011;45700;50.930;5.168;2023-08-01T12:13:31;4.72;;;1.60;;
36575;SDS011;45700;50.930;5.168;2023-08-01T12:17:32;1.98;;;1.42;;
36575;SDS011;45700;50.930;5.168;2023-08-01T12:21:34;2.67;;;1.58;;
36575;SDS011;45700;50.930;5.168;2023-08-01T12:25:35;3.00;;;1.50;;
36575;SDS011;45700;50.930;5.168;2023-08-01T12:29:36;2.47;;;1.27;;
36575;SDS011;45700;50.930;5.168;2023-08-01T12:33:37;2.25;;;1.20;;
36575;SDS011;45700;50.930;5.168;2023-08-01T12:37:38;6.35;;;2.00;;
36575;SDS011;45700;50.930;5.168;2023-08-01T12:41:39;1.67;;;1.30;;
36575;SDS011;45700;50.930;5.168;2023-08-01T12:45:40;2.92;;;1.50;;
36575;SDS011;45700;50.930;5.168;2023-08-01T12:49:41;3.08;;;1.13;;
36575;SDS011;45700;50.930;5.168;2023-08-01T12:53:42;4.53;;;1.10;;
36575;SDS011;45700;50.930;5.168;2023-08-01T12:57:43;3.67;;;1.20;;
36575;SDS011;45700;50.930;5.168;2023-08-01T13:01:44;5.60;;;1.33;;
36575;SDS011;45700;50.930;5.168;2023-08-01T13:05:45;2.53;;;1.23;;
36575;SDS011;45700;50.930;5.168;2023-08-01T13:09:46;3.42;;;1.10;;
36575;SDS011;45700;50.930;5.168;2023-08-01T13:13:47;3.47;;;1.10;;
36575;SDS011;45700;50.930;5.168;2023-08-01T13:17:48;4.72;;;1.10;;
36575;SDS011;45700;50.930;5.168;2023-08-01T13:21:50;3.38;;;1.02;;
36575;SDS011;45700;50.930;5.168;2023-08-01T13:25:50;4.43;;;1.60;;
36575;SDS011;45700;50.930;5.168;2023-08-01T13:29:51;3.72;;;1.17;;
36575;SDS011;45700;50.930;5.168;2023-08-01T13:33:54;3.63;;;1.52;;
36575;SDS011;45700;50.930;5.168;2023-08-01T13:37:55;1.77;;;0.68;;
36575;SDS011;45700;50.930;5.168;2023-08-01T13:41:56;2.55;;;1.00;;
36575;SDS011;45700;50.930;5.168;2023-08-01T13:45:57;1.75;;;1.00;;
36575;SDS011;45700;50.930;5.168;2023-08-01T13:49:58;6.35;;;0.90;;
36575;SDS011;45700;50.930;5.168;2023-08-01T13:53:59;1.15;;;0.52;;
36575;SDS011;45700;50.930;5.168;2023-08-01T13:58:01;3.55;;;1.10;;
36575;SDS011;45700;50.930;5.168;2023-08-01T14:02:02;4.10;;;1.27;;
36575;SDS011;45700;50.930;5.168;2023-08-01T14:06:04;1.40;;;0.70;;
36575;SDS011;45700;50.930;5.168;2023-08-01T14:10:05;2.47;;;0.98;;
36575;SDS011;45700;50.930;5.168;2023-08-01T14:14:06;2.47;;;0.90;;
36575;SDS011;45700;50.930;5.168;2023-08-01T14:18:07;2.78;;;0.60;;
36575;SDS011;45700;50.930;5.168;2023-08-01T14:22:08;2.72;;;0.60;;
36575;SDS011;45700;50.930;5.168;2023-08-01T14:26:09;1.63;;;0.70;;
36575;SDS011;45700;50.930;5.168;2023-08-01T14:30:10;3.20;;;0.98;;
36575;SDS011;45700;50.930;5.168;2023-08-01T14:34:12;4.22;;;1.02;;
36575;SDS011;45700;50.930;5.168;2023-08-01T14:38:13;2.15;;;1.25;;
36575;SDS011;45700;50.930;5.168;2023-08-01T14:42:14;3.70;;;0.50;;
36575;SDS011;45700;50.930;5.168;2023-08-01T14:46:15;1.92;;;0.90;;
36575;SDS011;45700;50.930;5.168;2023-08-01T14:50:16;1.80;;;0.90;;
36575;SDS011;45700;50.930;5.168;2023-08-01T14:54:17;3.63;;;0.63;;
36575;SDS011;45700;50.930;5.168;2023-08-01T14:58:18;4.15;;;1.38;;
36575;SDS011;45700;50.930;5.168;2023-08-01T15:02:19;2.22;;;0.77;;
36575;SDS011;45700;50.930;5.168;2023-08-01T15:06:20;4.47;;;0.80;;
36575;SDS011;45700;50.930;5.168;2023-08-01T15:10:21;3.40;;;0.57;;
36575;SDS011;45700;50.930;5.168;2023-08-01T15:14:22;3.38;;;1.05;;
36575;SDS011;45700;50.930;5.168;2023-08-01T15:18:23;2.30;;;0.80;;
36575;SDS011;45700;50.930;5.168;2023-08-01T15:22:24;6.78;;;0.88;;
36575;SDS011;45700;50.930;5.168;2023-08-01T15:26:25;3.95;;;1.10;;
36575;SDS011;45700;50.930;5.168;2023-08-01T15:30:26;4.18;;;1.02;;
36575;SDS011;45700;50.930;5.168;2023-08-01T15:34:27;5.65;;;1.55;;
36575;SDS011;45700;50.930;5.168;2023-08-01T15:38:29;2.05;;;1.08;;
36575;SDS011;45700;50.930;5.168;2023-08-01T15:42:31;5.97;;;1.10;;
36575;SDS011;45700;50.930;5.168;2023-08-01T15:46:32;6.80;;;0.73;;
36575;SDS011;45700;50.930;5.168;2023-08-01T15:50:33;1.13;;;0.50;;
36575;SDS011;45700;50.930;5.168;2023-08-01T15:54:34;3.25;;;0.80;;
36575;SDS011;45700;50.930;5.168;2023-08-01T15:58:35;3.05;;;0.88;;
36575;SDS011;45700;50.930;5.168;2023-08-01T16:02:36;1.52;;;0.60;;
36575;SDS011;45700;50.930;5.168;2023-08-01T16:06:37;1.33;;;0.82;;
36575;SDS011;45700;50.930;5.168;2023-08-01T16:10:39;4.35;;;1.42;;
36575;SDS011;45700;50.930;5.168;2023-08-01T16:14:40;3.28;;;0.75;;
36575;SDS011;45700;50.930;5.168;2023-08-01T16:18:41;4.95;;;1.30;;
36575;SDS011;45700;50.930;5.168;2023-08-01T16:22:42;3.53;;;0.85;;
36575;SDS011;45700;50.930;5.168;2023-08-01T16:26:43;4.20;;;1.42;;
36575;SDS011;45700;50.930;5.168;2023-08-01T16:30:44;4.70;;;1.08;;
36575;SDS011;45700;50.930;5.168;2023-08-01T16:34:45;5.60;;;1.60;;
36575;SDS011;45700;50.930;5.168;2023-08-01T16:38:46;5.65;;;1.05;;
36575;SDS011;45700;50.930;5.168;2023-08-01T16:42:47;7.78;;;1.48;;
36575;SDS011;45700;50.930;5.168;2023-08-01T16:46:48;4.53;;;1.15;;
36575;SDS011;45700;50.930;5.168;2023-08-01T16:50:49;4.57;;;1.10;;
36575;SDS011;45700;50.930;5.168;2023-08-01T16:54:50;3.70;;;1.40;;
36575;SDS011;45700;50.930;5.168;2023-08-01T16:58:51;2.65;;;1.15;;
36575;SDS011;45700;50.930;5.168;2023-08-01T17:02:53;4.80;;;1.77;;
36575;SDS011;45700;50.930;5.168;2023-08-01T17:06:55;2.03;;;0.93;;
36575;SDS011;45700;50.930;5.168;2023-08-01T17:10:56;4.97;;;1.30;;
36575;SDS011;45700;50.930;5.168;2023-08-01T17:14:57;2.03;;;1.10;;
36575;SDS011;45700;50.930;5.168;2023-08-01T17:18:59;4.32;;;1.42;;
36575;SDS011;45700;50.930;5.168;2023-08-01T17:23:00;4.22;;;1.70;;
36575;SDS011;45700;50.930;5.168;2023-08-01T17:27:01;6.82;;;1.33;;
36575;SDS011;45700;50.930;5.168;2023-08-01T17:31:06;3.53;;;1.40;;
36575;SDS011;45700;50.930;5.168;2023-08-01T17:35:07;3.35;;;1.20;;
36575;SDS011;45700;50.930;5.168;2023-08-01T17:39:08;4.95;;;1.40;;
36575;SDS011;45700;50.930;5.168;2023-08-01T17:43:09;3.45;;;0.93;;
36575;SDS011;45700;50.930;5.168;2023-08-01T17:47:10;3.97;;;1.00;;
36575;SDS011;45700;50.930;5.168;2023-08-01T17:51:11;3.50;;;0.95;;
36575;SDS011;45700;50.930;5.168;2023-08-01T17:55:12;2.28;;;1.42;;
36575;SDS011;45700;50.930;5.168;2023-08-01T17:59:13;3.22;;;1.10;;
36575;SDS011;45700;50.930;5.168;2023-08-01T18:03:15;1.90;;;1.17;;
36575;SDS011;45700;50.930;5.168;2023-08-01T18:07:16;3.80;;;1.00;;
36575;SDS011;45700;50.930;5.168;2023-08-01T18:11:17;3.20;;;1.40;;
36575;SDS011;45700;50.930;5.168;2023-08-01T18:15:19;8.45;;;1.33;;
36575;SDS011;45700;50.930;5.168;2023-08-01T18:19:20;3.08;;;1.55;;
36575;SDS011;45700;50.930;5.168;2023-08-01T18:23:21;5.82;;;1.42;;
36575;SDS011;45700;50.930;5.168;2023-08-01T18:27:22;8.13;;;1.55;;
36575;SDS011;45700;50.930;5.168;2023-08-01T18:31:23;4.95;;;1.73;;
36575;SDS011;45700;50.930;5.168;2023-08-01T18:35:24;5.15;;;1.42;;
36575;SDS011;45700;50.930;5.168;2023-08-01T18:39:25;4.35;;;1.58;;
36575;SDS011;45700;50.930;5.168;2023-08-01T18:43:27;4.47;;;1.50;;
36575;SDS011;45700;50.930;5.168;2023-08-01T18:47:29;5.85;;;1.30;;
36575;SDS011;45700;50.930;5.168;2023-08-01T18:51:30;6.03;;;1.17;;
36575;SDS011;45700;50.930;5.168;2023-08-01T18:55:32;3.13;;;1.20;;
36575;SDS011;45700;50.930;5.168;2023-08-01T18:59:33;3.53;;;1.45;;
36575;SDS011;45700;50.930;5.168;2023-08-01T19:03:34;2.90;;;1.20;;
36575;SDS011;45700;50.930;5.168;2023-08-01T19:07:36;3.53;;;1.73;;
36575;SDS011;45700;50.930;5.168;2023-08-01T19:11:37;6.30;;;1.73;;
36575;SDS011;45700;50.930;5.168;2023-08-01T19:15:38;4.07;;;1.23;;
36575;SDS011;45700;50.930;5.168;2023-08-01T19:19:39;2.47;;;1.13;;
36575;SDS011;45700;50.930;5.168;2023-08-01T19:23:40;5.85;;;1.63;;
36575;SDS011;45700;50.930;5.168;2023-08-01T19:27:41;9.45;;;1.80;;
36575;SDS011;45700;50.930;5.168;2023-08-01T19:31:43;5.10;;;1.63;;
36575;SDS011;45700;50.930;5.168;2023-08-01T19:35:44;2.95;;;1.45;;
36575;SDS011;45700;50.930;5.168;2023-08-01T19:39:45;2.92;;;1.27;;
36575;SDS011;45700;50.930;5.168;2023-08-01T19:43:46;7.35;;;1.52;;
36575;SDS011;45700;50.930;5.168;2023-08-01T19:47:47;13.70;;;1.67;;
36575;SDS011;45700;50.930;5.168;2023-08-01T19:51:48;4.72;;;1.95;;
36575;SDS011;45700;50.930;5.168;2023-08-01T19:55:50;3.85;;;1.65;;
36575;SDS011;45700;50.930;5.168;2023-08-01T19:59:52;5.68;;;1.83;;
36575;SDS011;45700;50.930;5.168;2023-08-01T20:03:53;5.30;;;2.08;;
36575;SDS011;45700;50.930;5.168;2023-08-01T20:07:54;5.90;;;1.70;;
36575;SDS011;45700;50.930;5.168;2023-08-01T20:11:55;3.97;;;1.55;;
36575;SDS011;45700;50.930;5.168;2023-08-01T20:15:56;4.28;;;1.50;;
36575;SDS011;45700;50.930;5.168;2023-08-01T20:19:57;6.18;;;2.05;;
36575;SDS011;45700;50.930;5.168;2023-08-01T20:23:58;5.70;;;2.85;;
36575;SDS011;45700;50.930;5.168;2023-08-01T20:27:59;9.65;;;2.80;;
36575;SDS011;45700;50.930;5.168;2023-08-01T20:32:00;4.30;;;2.00;;
36575;SDS011;45700;50.930;5.168;2023-08-01T20:36:01;2.28;;;1.40;;
36575;SDS011;45700;50.930;5.168;2023-08-01T20:40:02;7.05;;;2.15;;
36575;SDS011;45700;50.930;5.168;2023-08-01T20:44:04;8.10;;;1.73;;
36575;SDS011;45700;50.930;5.168;2023-08-01T20:48:05;4.50;;;1.23;;
36575;SDS011;45700;50.930;5.168;2023-08-01T20:52:07;3.67;;;1.80;;
36575;SDS011;45700;50.930;5.168;2023-08-01T20:56:10;4.80;;;1.15;;
36575;SDS011;45700;50.930;5.168;2023-08-01T21:00:12;2.28;;;0.95;;
36575;SDS011;45700;50.930;5.168;2023-08-01T21:04:13;2.35;;;1.08;;
36575;SDS011;45700;50.930;5.168;2023-08-01T21:08:14;5.80;;;1.60;;
36575;SDS011;45700;50.930;5.168;2023-08-01T21:12:15;2.33;;;0.98;;
36575;SDS011;45700;50.930;5.168;2023-08-01T21:16:17;4.00;;;0.85;;
36575;SDS011;45700;50.930;5.168;2023-08-01T21:20:18;3.42;;;1.10;;
36575;SDS011;45700;50.930;5.168;2023-08-01T21:24:19;1.20;;;0.80;;
36575;SDS011;45700;50.930;5.168;2023-08-01T21:28:20;1.35;;;0.60;;
36575;SDS011;45700;50.930;5.168;2023-08-01T21:32:21;0.90;;;0.57;;
36575;SDS011;45700;50.930;5.168;2023-08-01T21:36:22;2.08;;;0.70;;
36575;SDS011;45700;50.930;5.168;2023-08-01T21:40:23;1.58;;;0.68;;
36575;SDS011;45700;50.930;5.168;2023-08-01T21:44:25;2.22;;;0.80;;
36575;SDS011;45700;50.930;5.168;2023-08-01T21:48:27;1.70;;;1.05;;
36575;SDS011;45700;50.930;5.168;2023-08-01T21:52:28;1.58;;;0.85;;
36575;SDS011;45700;50.930;5.168;2023-08-01T21:56:29;1.92;;;0.80;;
36575;SDS011;45700;50.930;5.168;2023-08-01T22:00:30;1.70;;;0.85;;
36575;SDS011;45700;50.930;5.168;2023-08-01T22:04:31;1.90;;;0.90;;
36575;SDS011;45700;50.930;5.168;2023-08-01T22:08:32;2.08;;;0.93;;
36575;SDS011;45700;50.930;5.168;2023-08-01T22:12:33;2.72;;;1.00;;
36575;SDS011;45700;50.930;5.168;2023-08-01T22:16:34;1.80;;;1.10;;
36575;SDS011;45700;50.930;5.168;2023-08-01T22:20:35;4.70;;;0.90;;
36575;SDS011;45700;50.930;5.168;2023-08-01T22:24:36;2.50;;;1.00;;
36575;SDS011;45700;50.930;5.168;2023-08-01T22:28:37;4.32;;;1.13;;
36575;SDS011;45700;50.930;5.168;2023-08-01T22:32:38;4.07;;;1.20;;
36575;SDS011;45700;50.930;5.168;2023-08-01T22:36:39;3.05;;;1.08;;
36575;SDS011;45700;50.930;5.168;2023-08-01T22:40:40;2.88;;;0.93;;
36575;SDS011;45700;50.930;5.168;2023-08-01T22:44:41;3.35;;;1.33;;
36575;SDS011;45700;50.930;5.168;2023-08-01T22:48:42;3.55;;;1.00;;
36575;SDS011;45700;50.930;5.168;2023-08-01T22:52:46;2.63;;;0.73;;
36575;SDS011;45700;50.930;5.168;2023-08-01T22:56:49;3.50;;;1.20;;
36575;SDS011;45700;50.930;5.168;2023-08-01T23:00:50;6.15;;;1.70;;
36575;SDS011;45700;50.930;5.168;2023-08-01T23:04:51;5.22;;;1.15;;
36575;SDS011;45700;50.930;5.168;2023-08-01T23:08:52;3.47;;;1.80;;
36575;SDS011;45700;50.930;5.168;2023-08-01T23:12:53;4.90;;;1.58;;
36575;SDS011;45700;50.930;5.168;2023-08-01T23:16:54;9.98;;;1.58;;
36575;SDS011;45700;50.930;5.168;2023-08-01T23:20:56;5.55;;;1.63;;
36575;SDS011;45700;50.930;5.168;2023-08-01T23:24:58;7.57;;;2.08;;
36575;SDS011;45700;50.930;5.168;2023-08-01T23:28:59;3.92;;;1.52;;
36575;SDS011;45700;50.930;5.168;2023-08-01T23:33:00;1.92;;;1.10;;
36575;SDS011;45700;50.930;5.168;2023-08-01T23:37:02;5.13;;;1.58;;
36575;SDS011;45700;50.930;5.168;2023-08-01T23:41:13;6.50;;;1.50;;
36575;SDS011;45700;50.930;5.168;2023-08-01T23:45:14;5.72;;;1.30;;
36575;SDS011;45700;50.930;5.168;2023-08-01T23:49:15;7.20;;;1.58;;
36575;SDS011;45700;50.930;5.168;2023-08-01T23:53:16;4.05;;;1.40;;
36575;SDS011;45700;50.930;5.168;2023-08-01T23:57:18;3.80;;;1.70;;
